1964 Tropical Cyclone AUDREY (1964006S13137)


IBTrACS version v04r00. Visit IBTrACS website for data access.
Please direct all questions to the IBTrACS Q and A forum

Storm track - Intensity - Wind Radii - Intensity Data - Source Data - All data

Summary Information

Storm ID 1964006S13137
Start Jan 6 00Z
Landfall Jan 7 06Z, Jan 9 06Z, Jan 10 23Z, Jan 15 15Z
Max Intensity 55 kt (Jan 10 12Z), 983 mb (Jan 10 21Z)
End Jan 16 00Z
ATCF IDs SH071964
Track status Best track data.

Storm track plot

Map of storm track

Intensity plots

Map of storm track

Radial wind information

No radial wind information for this storm


Position and Intensity Table

BASIN ISO_TIME_________ NATURE LAT LON WMO PRES BOM PRES NEUMANN WIND NEUMANN PRES
degrees north degrees east mb mb kts mb
SP 1964-01-06 00:00:00 TS -13.10 136.90
SP 03:00:00 TS -12.86 137.35
SP 06:00:00 TS -12.67 137.67
SP 09:00:00 TS -12.35 138.18
SP 12:00:00 TS -12.00 138.80
SP 15:00:00 TS -11.64 139.54
SP 18:00:00 TS -11.31 140.30
SP 21:00:00 TS -10.97 141.07
SP 23:00:00 TS -10.78 141.52 1000 1000
SP 1964-01-07 00:00:00 TS -10.67 141.71 999 30 1000
SP 02:00:00 TS -10.71 142.01 999 999 30 999
SP 03:00:00 TS -10.75 142.13 999 30 999
SP 06:00:00 TS -10.99 142.31 999 30 999
SP 09:00:00 TS -11.28 142.35 999 32 999
SP 11:00:00 TS -11.48 142.28 999 999 34 999
SP 12:00:00 TS -11.57 142.23 999 35 999
SP 15:00:00 TS -11.82 141.97 999 32 999
SP 17:00:00 TS -11.96 141.74 999 999 30 999
SP 18:00:00 TS -12.03 141.62 998 30 999
SP 21:00:00 TS -12.24 141.29 998 32 998
SP 23:00:00 TS -12.33 141.10 998 998 34 998
SP 1964-01-08 00:00:00 TS -12.36 141.03 997 35 998
SP 03:00:00 TS -12.34 140.92 997 35 997
SP 06:00:00 TS -12.24 140.90 996 35 997
SP 09:00:00 TS -12.14 140.91 996 35 996
SP 11:00:00 TS -12.08 140.95 996 996 35 996
SP 12:00:00 TS -12.06 140.98 995 35 996
SP 15:00:00 TS -11.99 141.11 994 37 995
SP 18:00:00 TS -11.96 141.28 993 40 994
SP 21:00:00 TS -11.98 141.45 992 42 993
SP 23:00:00 TS -12.03 141.54 992 992 44 992
SP 1964-01-09 00:00:00 TS -12.08 141.58 992 45 992
SP 03:00:00 TS -12.29 141.64 992 45 992
SP 06:00:00 TS -12.60 141.65 992 45 992
SP 09:00:00 TS -12.94 141.64 992 45 992
SP 11:00:00 TS -13.18 141.61 992 992 45 992
SP 12:00:00 TS -13.28 141.58 991 45 992
SP 15:00:00 TS -13.50 141.47 990 45 991
SP 18:00:00 TS -13.69 141.30 989 45 990
SP 21:00:00 TS -13.91 141.13 988 47 989
SP 23:00:00 TS -14.08 141.00 988 988 49 988
SP 1964-01-10 00:00:00 TS -14.18 140.93 987 50 988
SP 03:00:00 TS -14.53 140.71 987 50 987
SP 06:00:00 TS -14.93 140.47 986 50 987
SP 09:00:00 TS -15.34 140.19 986 52 986
SP 11:00:00 TS -15.60 140.00 986 986 54 986
SP 12:00:00 TS -15.73 139.91 985 55 986
SP 15:00:00 TS -16.08 139.62 985 55 985
SP 18:00:00 TS -16.40 139.31 984 55 984
SP 21:00:00 TS -16.71 139.00 983 55 983
SP 23:00:00 TS -16.92 138.80 983 983 55 983
SP 1964-01-11 00:00:00 TS -17.02 138.71 983 55 983
SP 03:00:00 TS -17.33 138.45 983 55 983
SP 06:00:00 TS -17.63 138.22 983 55 983
SP 06:10:00 TS -17.64 138.20 983 983 54 983
SP 09:00:00 TS -17.88 137.99 984 50 984
SP 11:00:00 TS -18.05 137.86 985 985 46 984
SP 12:00:00 TS -18.13 137.80 985 45 985
SP 15:00:00 TS -18.42 137.65 985 42 985
SP 18:00:00 TS -18.72 137.54 985 40 985
SP 21:00:00 TS -19.01 137.43 985 37 985
SP 23:30:00 TS -19.29 137.34 985 985 35 985
SP 1964-01-12 00:00:00 TS -19.35 137.32 985 35 985
SP 03:00:00 TS -19.78 137.17 985 35 985
SP 05:30:00 TS -20.14 137.09 985 985 35 985
SP 06:00:00 TS -20.20 137.08 985 35 985
SP 09:00:00 TS -20.54 137.07 987 32 986
SP 11:30:00 TS -20.79 137.16 989 989 30 987
SP 12:00:00 TS -20.84 137.19 988 30 988
SP 15:00:00 TS -21.14 137.45 988 30 988
SP 18:00:00 TS -21.46 137.82 988 30 988
SP 21:00:00 TS -21.80 138.22 988 30 988
SP 23:00:00 TS -22.06 138.53 988 988 30 988
SP 1964-01-13 00:00:00 TS -22.19 138.69 987 30 988
SP 03:00:00 TS -22.65 139.17 987 30 987
SP 05:00:00 TS -23.10 139.65 987 987 30 987
SP 06:00:00 TS -23.40 139.96 987 30 987
SP 08:00:00 TS -24.08 140.73 987 987 30 986
SP 09:00:00 TS -24.40 141.15 986 30 986
SP 11:00:00 TS -25.03 142.05 986 986 30 986
SP 12:00:00 TS -25.36 142.51 986 30 986
SP 14:00:00 TS -25.93 143.45 986 986 30 985
SP 15:00:00 TS -26.20 143.96 985 30 985
SP 17:00:00 TS -26.71 145.05 985 985 30 985
SP 18:00:00 TS -26.96 145.61 984 30 985
SP 21:00:00 TS -27.66 147.35 984 32 984
SP 23:00:00 TS -28.20 148.60 984 984 34 984
SP 1964-01-14 00:00:00 TS -28.53 149.24 984 35 984
SP 02:00:00 TS -29.27 150.67 984 984 40 985
SP 03:00:00 TS -29.63 151.45 986 42 986
SP 04:00:00 TS -29.98 152.20 988 988 44 986
SP 06:00:00 TS -30.75 153.66 989 50 988
SP 08:00:00 TS -31.53 155.04 990 990 51
SP 09:00:00 TS -31.92 155.67 52
SP 12:00:00 TS -33.10 157.70 55
SP 15:00:00 TS -34.24 159.66 50
SP 18:00:00 TS -35.37 161.51 45
SP 21:00:00 TS -36.50 163.29 42
SP 1964-01-15 00:00:00 TS -37.60 164.90 40
SP 03:00:00 TS -38.66 166.33 37
SP 06:00:00 TS -39.67 167.63 35
SP 09:00:00 TS -40.63 168.96 35
SP 12:00:00 TS -41.50 170.30 35
SP 15:00:00 TS -42.25 171.68 32
SP 18:00:00 TS -42.89 173.09 30
SP 21:00:00 TS -43.43 174.53 32
SP 1964-01-16 00:00:00 TS -43.90 176.00 35

Source Information

Agency Information
USA bsh071964.txt
TOKYO
CMA
HKO
NEWDELHI
REUNION
BOM IDCKMSTM0S.csv:Line=3875:AUDREY
NADI
WELLINGTON
DS824 s_hem.dat:911:07P
TD9636 cons_worldwide_trop_cyclone_18710101-19891231-006:Line=6751
TD9635
NEUMANN tracks.sh:Storm=92:AUDREY:BSH0764:BM330
MLC

All available IBTrACS Data

SEASON BASIN SUBBASIN ISO_TIME_________ NATURE LAT LON WMO PRES WMO AGENCY DIST2LAND LANDFALL IFLAG USA AGENCY USA ATCF_ID USA LAT USA LON USA SSHS BOM LAT BOM LON BOM PRES BOM PRES_METHOD DS824 LAT DS824 LON DS824 STAGE TD9636 LAT TD9636 LON TD9636 STAGE NEUMANN LAT NEUMANN LON NEUMANN CLASS NEUMANN WIND NEUMANN PRES STORM SPEED STORM DIR
Year degrees north degrees east mb km km degrees north degrees east 1 degrees north degrees east mb degrees north degrees east degrees north degrees east degrees north degrees east kts mb kts degrees
1964 SP EA 1964-01-06 00:00:00 TS -13.10 136.90 24 24 O________O____ jtwc_sh SH071964 -13.10 136.90 -1 -13.10 136.90 TC 10 61
1964 SP EA 03:00:00 TS -12.86 137.35 73 68 P________P____ SH071964 -12.86 137.35 -1 -12.86 137.35 TC 9 60
1964 SP EA 06:00:00 TS -12.67 137.67 88 83 O________OO___ jtwc_sh SH071964 -12.60 137.80 -1 -12.60 137.80 TC -13.10 136.90 2 10 58
1964 SP EA 09:00:00 TS -12.35 138.18 130 130 P________PP___ SH071964 -12.31 138.26 -1 -12.31 138.26 TC -12.54 137.86 2 13 59
1964 SP EA 12:00:00 TS -12.00 138.80 198 198 O________OO___ jtwc_sh SH071964 -12.00 138.80 -1 -12.00 138.80 TC -12.00 138.80 2 15 62
1964 SP EA 15:00:00 TS -11.64 139.54 248 182 P________PP___ SH071964 -11.70 139.46 -1 -11.70 139.46 TC -11.51 139.69 2 16 65
1964 SP EA 18:00:00 TS -11.31 140.30 182 120 O________OP___ jtwc_sh SH071964 -11.40 140.20 -1 -11.40 140.20 TC -11.12 140.51 2 16 66
1964 SP EA 21:00:00 TS -10.97 141.07 109 69 P________PP___ SH071964 -11.02 141.01 -1 -11.02 141.01 TC -10.87 141.19 2 16 66
1964 SP EA 23:00:00 TS -10.78 141.52 1000 bom 69 55 P_____O__PP___ SH071964 -10.84 141.50 -1 -10.20 141.50 1000 -10.84 141.50 TC -10.80 141.55 2 14 65
1964 SP EA 1964-01-07 00:00:00 TS -10.67 141.71 55 35 O_____P__OO_O_ jtwc_sh SH071964 -10.80 141.70 -1 -10.31 141.76 999 -10.80 141.70 TC -10.80 141.70 2 -10.20 141.70 TC 30 1000 10 82
1964 SP EA 02:00:00 TS -10.71 142.01 999 bom 35 31 P_____O__PP_P_ SH071964 -10.86 142.01 -1 -10.50 142.20 999 -10.86 142.01 TC -10.90 141.98 2 -10.34 141.98 TC 30 999 8 100
1964 SP EA 03:00:00 TS -10.75 142.13 31 0 P_____P__PP_P_ SH071964 -10.94 142.12 -1 -10.58 142.34 999 -10.94 142.12 TC -10.98 142.09 2 -10.41 142.11 TC 30 999 6 134
1964 SP EA 06:00:00 TS -10.99 142.31 0 0 O_____P__OP_O_ jtwc_sh SH071964 -11.30 142.30 -1 -10.73 142.47 999 -11.30 142.30 TC -11.34 142.31 2 -10.60 142.40 TC 30 999 6 158
1964 SP EA 09:00:00 TS -11.28 142.35 0 0 P_____P__PP_P_ SH071964 -11.74 142.37 -1 -10.83 142.33 999 -11.74 142.37 TC -11.78 142.34 2 -10.76 142.47 TC 32 999 6 185
1964 SP EA 11:00:00 TS -11.48 142.28 999 bom 0 0 P_____O__PP_P_ SH071964 -12.06 142.29 -1 -10.90 142.20 999 -12.06 142.29 TC -12.07 142.27 2 -10.85 142.43 TC 34 999 6 202
1964 SP EA 12:00:00 TS -11.57 142.23 0 0 O_____P__OO_O_ jtwc_sh SH071964 -12.20 142.20 -1 -10.95 142.18 999 -12.20 142.20 TC -12.20 142.20 2 -10.90 142.40 TC 35 999 7 222
1964 SP EA 15:00:00 TS -11.82 141.97 0 0 P_____P__PP_P_ SH071964 -12.55 141.76 -1 -11.09 142.08 999 -12.55 141.76 TC -12.54 141.82 2 -11.04 142.32 TC 32 999 7 231
1964 SP EA 17:00:00 TS -11.96 141.74 999 bom 15 15 P_____O__PP_P_ SH071964 -12.73 141.38 -1 -11.20 142.00 999 -12.73 141.38 TC -12.74 141.47 2 -11.14 142.24 TC 30 999 8 238
1964 SP EA 18:00:00 TS -12.03 141.62 24 15 O_____P__OP_O_ jtwc_sh SH071964 -12.80 141.20 -1 -11.27 141.95 998 -12.80 141.20 TC -12.82 141.28 2 -11.20 142.20 TC 30 999 8 238
1964 SP EA 21:00:00 TS -12.24 141.29 43 43 P_____P__PP_P_ SH071964 -13.03 140.68 -1 -11.47 141.80 998 -13.03 140.68 TC -13.03 140.73 2 -11.42 142.04 TC 32 998 7 240
1964 SP EA 23:00:00 TS -12.33 141.10 998 bom 63 63 P_____O__PP_P_ SH071964 -13.10 140.40 -1 -11.60 141.70 998 -13.10 140.40 TC -13.09 140.42 2 -11.55 141.94 TC 34 998 6 244
1964 SP EA 1964-01-08 00:00:00 TS -12.36 141.03 68 68 O_____P__OO_O_ jtwc_sh SH071964 -13.10 140.30 -1 -11.65 141.67 997 -13.10 140.30 TC -13.10 140.30 2 -11.60 141.90 TC 35 998 3 269
1964 SP EA 03:00:00 TS -12.34 140.92 83 83 P_____P__PP_P_ SH071964 -12.96 140.17 -1 -11.74 141.59 997 -12.96 140.17 TC -12.99 140.13 2 -11.66 141.83 TC 35 997 2 316
1964 SP EA 06:00:00 TS -12.24 140.90 87 87 O_____P__OP_O_ jtwc_sh SH071964 -12.70 140.20 -1 -11.81 141.55 996 -12.70 140.20 TC -12.75 140.10 2 -11.70 141.80 TC 35 997 2 0
1964 SP EA 09:00:00 TS -12.14 140.91 87 76 P_____P__PP_P_ SH071964 -12.45 140.24 -1 -11.86 141.52 996 -12.45 140.24 TC -12.47 140.20 2 -11.79 141.75 TC 35 996 2 16
1964 SP EA 11:00:00 TS -12.08 140.95 996 bom 76 76 P_____O__PP_P_ SH071964 -12.28 140.33 -1 -11.90 141.50 996 -12.28 140.33 TC -12.28 140.32 2 -11.86 141.72 TC 35 996 2 41
1964 SP EA 12:00:00 TS -12.06 140.98 76 69 O_____P__OO_O_ jtwc_sh SH071964 -12.20 140.40 -1 -11.93 141.48 995 -12.20 140.40 TC -12.20 140.40 2 -11.90 141.70 TC 35 996 3 60
1964 SP EA 15:00:00 TS -11.99 141.11 69 48 P_____P__PP_P_ SH071964 -11.97 140.71 -1 -12.03 141.43 994 -11.97 140.71 TC -11.97 140.71 2 -11.99 141.65 TC 37 995 3 72
1964 SP EA 18:00:00 TS -11.96 141.28 48 39 O_____P__OP_O_ jtwc_sh SH071964 -11.80 141.10 -1 -12.15 141.38 993 -11.80 141.10 TC -11.77 141.10 2 -12.10 141.60 TC 40 994 3 87
1964 SP EA 21:00:00 TS -11.98 141.45 39 31 P_____P__PP_P_ SH071964 -11.68 141.49 -1 -12.29 141.33 992 -11.68 141.49 TC -11.67 141.49 2 -12.23 141.55 TC 42 993 3 105
1964 SP EA 23:00:00 TS -12.03 141.54 992 bom 31 15 P_____O__PP_P_ SH071964 -11.67 141.71 -1 -12.40 141.30 992 -11.67 141.71 TC -11.67 141.71 2 -12.34 141.52 TC 44 992 3 127
1964 SP EA 1964-01-09 00:00:00 TS -12.08 141.58 15 10 O_____P__OO_O_ jtwc_sh SH071964 -11.70 141.80 -1 -12.46 141.29 992 -11.70 141.80 TC -11.70 141.80 2 -12.40 141.50 TC 45 992 4 160
1964 SP EA 03:00:00 TS -12.29 141.64 10 0 P_____P__PP_P_ SH071964 -11.92 141.96 -1 -12.67 141.26 992 -11.92 141.96 TC -11.96 141.97 2 -12.59 141.44 TC 45 992 5 172
1964 SP EA 06:00:00 TS -12.60 141.65 0 0 O_____P__OP_O_ jtwc_sh SH071964 -12.30 142.00 -1 -12.90 141.24 992 -12.30 142.00 TC -12.34 142.04 2 -12.80 141.40 TC 45 992 7 179
1964 SP EA 09:00:00 TS -12.94 141.64 10 0 P_____P__PP_P_ SH071964 -12.76 142.00 -1 -13.14 141.22 992 -12.76 142.00 TC -12.79 142.01 2 -13.05 141.40 TC 45 992 7 184
1964 SP EA 11:00:00 TS -13.18 141.61 992 bom 10 10 P_____O__PP_P_ SH071964 -13.07 141.95 -1 -13.30 141.20 992 -13.07 141.95 TC -13.07 141.95 2 -13.22 141.40 TC 45 992 7 189
1964 SP EA 12:00:00 TS -13.28 141.58 10 10 O_____P__OO_O_ jtwc_sh SH071964 -13.20 141.90 -1 -13.37 141.19 991 -13.20 141.90 TC -13.20 141.90 2 -13.30 141.40 TC 45 992 5 204
1964 SP EA 15:00:00 TS -13.50 141.47 10 10 P_____P__PP_P_ SH071964 -13.43 141.69 -1 -13.59 141.16 990 -13.43 141.69 TC -13.42 141.73 2 -13.50 141.36 TC 45 991 5 213
1964 SP EA 18:00:00 TS -13.69 141.30 31 24 O_____P__OP_O_ jtwc_sh SH071964 -13.60 141.40 -1 -13.82 141.11 989 -13.60 141.40 TC -13.61 141.47 2 -13.70 141.30 TC 45 990 5 218
1964 SP EA 21:00:00 TS -13.91 141.13 43 43 P_____P__PP_P_ SH071964 -13.80 141.11 -1 -14.04 141.05 988 -13.80 141.11 TC -13.81 141.15 2 -13.94 141.26 TC 47 989 6 217
1964 SP EA 23:00:00 TS -14.08 141.00 988 bom 58 58 P_____O__PP_P_ SH071964 -13.99 140.91 -1 -14.20 141.00 988 -13.99 140.91 TC -13.99 140.92 2 -14.11 141.22 TC 49 988 7 216
1964 SP EA 1964-01-10 00:00:00 TS -14.18 140.93 72 68 O_____P__OO_O_ jtwc_sh SH071964 -14.10 140.80 -1 -14.28 140.97 987 -14.10 140.80 TC -14.10 140.80 2 -14.20 141.20 TC 50 988 8 212
1964 SP EA 03:00:00 TS -14.53 140.71 86 86 P_____P__PP_P_ SH071964 -14.55 140.46 -1 -14.52 140.88 987 -14.55 140.46 TC -14.56 140.45 2 -14.45 141.11 TC 50 987 9 211
1964 SP EA 06:00:00 TS -14.93 140.47 116 116 O_____P__OP_O_ jtwc_sh SH071964 -15.10 140.10 -1 -14.77 140.76 986 -15.10 140.10 TC -15.11 140.08 2 -14.70 141.00 TC 50 987 10 212
1964 SP EA 09:00:00 TS -15.34 140.19 141 139 P_____P__PP_P_ SH071964 -15.67 139.70 -1 -15.02 140.61 986 -15.67 139.70 TC -15.67 139.69 2 -14.95 140.87 TC 52 986 10 213
1964 SP EA 11:00:00 TS -15.60 140.00 986 bom 153 151 P_____O__PP_P_ SH071964 -16.03 139.43 -1 -15.20 140.50 986 -16.03 139.43 TC -16.03 139.43 2 -15.12 140.76 TC 54 986 10 215
1964 SP EA 12:00:00 TS -15.73 139.91 162 109 O_____P__OO_O_ jtwc_sh SH071964 -16.20 139.30 -1 -15.29 140.44 985 -16.20 139.30 TC -16.20 139.30 2 -15.20 140.70 TC 55 986 9 218
1964 SP EA 15:00:00 TS -16.08 139.62 109 64 P_____P__PP_P_ SH071964 -16.63 138.95 -1 -15.57 140.24 985 -16.63 138.95 TC -16.63 138.89 2 -15.44 140.46 TC 55 985 9 221
1964 SP EA 18:00:00 TS -16.40 139.31 64 22 O_____P__OP_O_ jtwc_sh SH071964 -17.00 138.60 -1 -15.85 140.01 984 -17.00 138.60 TC -17.01 138.48 2 -15.70 140.20 TC 55 984 9 223
1964 SP EA 21:00:00 TS -16.71 139.00 22 0 P_____P__PP_P_ SH071964 -17.36 138.18 -1 -16.12 139.77 983 -17.36 138.18 TC -17.36 138.11 2 -16.00 140.00 TC 55 983 9 223
1964 SP EA 23:00:00 TS -16.92 138.80 983 bom 0 0 P_____O__PP_P_ SH071964 -17.59 137.92 -1 -16.30 139.60 983 4 -17.59 137.92 TC -17.59 137.89 2 -16.20 139.87 TC 55 983 8 222
1964 SP EA 1964-01-11 00:00:00 TS -17.02 138.71 0 0 O_____P__OO_O_ jtwc_sh SH071964 -17.70 137.80 -1 -16.39 139.53 983 -17.70 137.80 TC -17.70 137.80 2 -16.30 139.80 TC 55 983 8 219
1964 SP EA 03:00:00 TS -17.33 138.45 0 0 P_____P__PP_P_ SH071964 -18.06 137.50 -1 -16.65 139.31 983 -18.06 137.50 TC -18.05 137.56 2 -16.56 139.58 TC 55 983 8 218
1964 SP EA 06:00:00 TS -17.63 138.22 0 0 O_____P__OP_O_ jtwc_sh SH071964 -18.40 137.30 -1 -16.89 139.02 983 -18.40 137.30 TC -18.38 137.38 2 -16.80 139.30 TC 55 983 7 218
1964 SP EA 06:10:00 TS -17.64 138.20 983 bom 0 0 P_____O__PP_P_ SH071964 -18.42 137.29 -1 -16.90 139.00 983 -18.42 137.29 TC -18.40 137.37 2 -16.81 139.28 TC 54 983 7 221
1964 SP EA 09:00:00 TS -17.88 137.99 0 0 P_____P__PP_P_ SH071964 -18.71 137.21 -1 -17.07 138.59 984 -18.71 137.21 TC -18.70 137.26 2 -16.99 138.90 TC 50 984 7 219
1964 SP EA 11:00:00 TS -18.05 137.86 985 bom 0 0 P_____O__PP_P_ SH071964 -18.90 137.20 -1 -17.20 138.30 985 -18.90 137.20 TC -18.90 137.22 2 -17.12 138.62 TC 46 984 6 216
1964 SP EA 12:00:00 TS -18.13 137.80 0 0 O_____P__OO_O_ jtwc_sh SH071964 -19.00 137.20 -1 -17.27 138.19 985 -19.00 137.20 TC -19.00 137.20 2 -17.20 138.50 TC 45 985 6 207
1964 SP EA 15:00:00 TS -18.42 137.65 0 0 P_____P__PP_P_ SH071964 -19.31 137.18 -1 -17.53 137.93 985 -19.31 137.18 TC -19.28 137.15 2 -17.53 138.23 TC 42 985 6 202
1964 SP EA 18:00:00 TS -18.72 137.54 0 0 O_____P__OP_O_ jtwc_sh SH071964 -19.60 137.20 -1 -17.84 137.73 985 -19.60 137.20 TC -19.55 137.16 2 -17.90 138.00 TC 40 985 6 199
1964 SP EA 21:00:00 TS -19.01 137.43 0 0 P_____P__PP_P_ SH071964 -19.85 137.23 -1 -18.22 137.52 985 -19.85 137.23 TC -19.82 137.21 2 -18.17 137.76 TC 37 985 7 198
1964 SP EA 23:30:00 TS -19.29 137.34 985 bom 0 0 P_____O__PP_P_ SH071964 -20.06 137.28 -1 -18.60 137.30 985 -20.06 137.28 TC -20.05 137.28 2 -18.43 137.55 TC 35 985 7 198
1964 SP EA 1964-01-12 00:00:00 TS -19.35 137.32 0 0 O_____P__OO_O_ jtwc_sh SH071964 -20.10 137.30 -1 -18.69 137.23 985 -20.10 137.30 TC -20.10 137.30 2 -18.50 137.50 TC 35 985 9 198
1964 SP EA 03:00:00 TS -19.78 137.17 0 0 P_____P__PP_P_ SH071964 -20.39 137.43 -1 -19.27 136.79 985 -20.39 137.43 TC -20.43 137.41 2 -19.05 137.13 TC 35 985 9 195
1964 SP EA 05:30:00 TS -20.14 137.09 985 bom 0 0 P_____O__PP_P_ SH071964 -20.65 137.57 -1 -19.70 136.50 985 -20.65 137.57 TC -20.71 137.52 2 -19.52 136.84 TC 35 985 9 192
1964 SP EA 06:00:00 TS -20.20 137.08 0 0 O_____P__OP_O_ jtwc_sh SH071964 -20.70 137.60 -1 -19.76 136.46 985 -20.70 137.60 TC -20.76 137.55 2 -19.60 136.80 TC 35 985 7 184
1964 SP EA 09:00:00 TS -20.54 137.07 0 0 P_____P__PP_P_ SH071964 -21.06 137.74 -1 -20.07 136.33 987 -21.06 137.74 TC -21.10 137.72 2 -19.91 136.57 TC 32 986 6 173
1964 SP EA 11:30:00 TS -20.79 137.16 989 bom 0 0 P_____O__PP_P_ SH071964 -21.35 137.87 -1 -20.30 136.40 989 -21.35 137.87 TC -21.35 137.87 2 -20.15 136.57 TC 30 987 7 160
1964 SP EA 12:00:00 TS -20.84 137.19 0 0 O_____P__OO_O_ jtwc_sh SH071964 -21.40 137.90 -1 -20.36 136.43 988 -21.40 137.90 TC -21.40 137.90 2 -20.20 136.60 TC 30 988 8 143
1964 SP EA 15:00:00 TS -21.14 137.45 0 0 P_____P__PP_P_ SH071964 -21.61 138.09 -1 -20.75 136.80 988 -21.61 138.09 TC -21.58 137.99 2 -20.63 137.00 TC 30 988 9 136
1964 SP EA 18:00:00 TS -21.46 137.82 0 0 O_____P__OP_O_ jtwc_sh SH071964 -21.80 138.30 -1 -21.19 137.38 988 -21.80 138.30 TC -21.74 138.10 2 -21.10 137.60 TC 30 988 10 132
1964 SP EA 21:00:00 TS -21.80 138.22 0 0 P_____P__PP_P_ SH071964 -22.00 138.45 -1 -21.67 138.05 988 -22.00 138.45 TC -21.96 138.32 2 -21.54 138.14 TC 30 988 11 133
1964 SP EA 23:00:00 TS -22.06 138.53 988 bom 0 0 P_____O__PP_P_ SH071964 -22.18 138.59 -1 -22.00 138.50 988 -22.18 138.59 TC -22.17 138.55 2 -21.84 138.51 TC 30 988 12 133
1964 SP EA 1964-01-13 00:00:00 TS -22.19 138.69 0 0 O_____P__OO_O_ jtwc_sh SH071964 -22.30 138.70 -1 -22.06 138.62 987 -22.30 138.70 TC -22.30 138.70 2 -22.00 138.70 TC 30 988 13 135
1964 SP EA 03:00:00 TS -22.65 139.17 0 0 P_____P__PP_P_ SH071964 -22.77 139.12 -1 -22.39 139.08 987 -22.77 139.12 TC -22.81 139.20 2 -22.38 139.16 TC 30 987 15 136
1964 SP EA 05:00:00 TS -23.10 139.65 987 bom 0 0 P_____O__PP_P_ SH071964 -23.17 139.54 -1 -23.00 139.70 987 -23.17 139.54 TC -23.22 139.64 2 -22.74 139.60 TC 30 987 21 136
1964 SP EA 06:00:00 TS -23.40 139.96 0 0 O_____P__OP_O_ jtwc_sh SH071964 -23.40 139.80 -1 -23.56 140.19 987 -23.40 139.80 TC -23.45 139.90 2 -23.00 139.90 TC 30 987 28 134
1964 SP EA 08:00:00 TS -24.08 140.73 987 bom 0 0 P_____O__PP_P_ SH071964 -23.89 140.39 -1 -24.70 141.30 987 -23.89 140.39 TC -23.93 140.48 2 -23.76 140.76 TC 30 986 30 133
1964 SP EA 09:00:00 TS -24.40 141.15 0 0 P_____P__PP_P_ SH071964 -24.16 140.74 -1 -25.03 141.80 986 -24.16 140.74 TC -24.19 140.82 2 -24.20 141.27 TC 30 986 31 128
1964 SP EA 11:00:00 TS -25.03 142.05 986 bom 0 0 P_____O__PP_P_ SH071964 -24.72 141.55 -1 -25.50 142.70 986 -24.72 141.55 TC -24.72 141.58 2 -25.09 142.36 TC 30 986 31 128
1964 SP EA 12:00:00 TS -25.36 142.51 0 0 O_____P__OO_O_ jtwc_sh SH071964 -25.00 142.00 -1 -25.83 143.09 986 -25.00 142.00 TC -25.00 142.00 2 -25.50 142.90 TC 30 986 31 125
1964 SP EA 14:00:00 TS -25.93 143.45 986 bom 0 0 P_____O__PP_P_ SH071964 -25.52 142.96 -1 -26.50 143.90 986 -25.52 142.96 TC -25.51 142.92 2 -26.16 143.85 TC 30 985 31 123
1964 SP EA 15:00:00 TS -26.20 143.96 0 0 P_____P__PP_P_ SH071964 -25.78 143.48 -1 -26.76 144.42 985 -25.78 143.48 TC -25.77 143.43 2 -26.45 144.32 TC 30 985 33 119
1964 SP EA 17:00:00 TS -26.71 145.05 985 bom 0 0 P_____O__PP_P_ SH071964 -26.32 144.61 -1 -27.20 145.60 985 -26.32 144.61 TC -26.32 144.53 2 -26.97 145.29 TC 30 985 33 117
1964 SP EA 18:00:00 TS -26.96 145.61 0 0 O_____P__OP_O_ jtwc_sh SH071964 -26.60 145.20 -1 -27.36 146.15 984 -26.60 145.20 TC -26.61 145.11 2 -27.20 145.80 TC 30 985 34 115
1964 SP EA 21:00:00 TS -27.66 147.35 0 0 P_____P__PP_P_ SH071964 -27.49 147.01 -1 -27.78 147.84 984 -27.49 147.01 TC -27.51 147.00 2 -27.70 147.43 TC 32 984 35 115
1964 SP EA 23:00:00 TS -28.20 148.60 984 bom 0 0 P_____O__PP_P_ SH071964 -28.15 148.32 -1 -28.30 149.10 984 -28.15 148.32 TC -28.16 148.32 2 -28.06 148.64 TC 34 984 38 117
1964 SP EA 1964-01-14 00:00:00 TS -28.53 149.24 0 0 O_____P__OO_O_ jtwc_sh SH071964 -28.50 149.00 -1 -28.77 149.77 984 -28.50 149.00 TC -28.50 149.00 2 -28.30 149.30 TC 35 984 42 120
1964 SP EA 02:00:00 TS -29.27 150.67 984 bom 0 0 P_____O__PP_P_ SH071964 -29.23 150.43 -1 -29.70 151.30 984 -29.23 150.43 TC -29.21 150.39 2 -28.96 150.82 TC 40 985 44 120
1964 SP EA 03:00:00 TS -29.63 151.45 0 0 P_____P__PP_P_ SH071964 -29.62 151.16 -1 -29.97 152.20 986 -29.62 151.16 TC -29.58 151.11 2 -29.35 151.63 TC 42 986 45 118
1964 SP EA 04:00:00 TS -29.98 152.20 988 bom 0 0 P_____O__PP_P_ SH071964 -30.01 151.91 -1 -30.20 153.10 988 -30.01 151.91 TC -29.96 151.84 2 -29.76 152.44 TC 44 986 44 120
1964 SP EA 06:00:00 TS -30.75 153.66 66 66 O_____P__OP_O_ jtwc_sh SH071964 -30.80 153.40 -1 -30.86 154.69 989 -30.80 153.40 TC -30.73 153.33 2 -30.60 154.00 TC 50 988 43 122
1964 SP EA 08:00:00 TS -31.53 155.04 990 bom 185 197 P_____O__PP_P_ SH071964 -31.56 154.87 -1 -31.70 156.10 990 -31.56 154.87 TC -31.52 154.82 2 -31.43 155.32 TC 51 42 124
1964 SP EA 09:00:00 TS -31.92 155.67 261 261 P________PP_P_ SH071964 -31.95 155.59 -1 -31.95 155.59 TC -31.92 155.56 2 -31.85 155.94 TC 52 41 125
1964 SP EA 12:00:00 TS -33.10 157.70 481 481 O________OO_O_ jtwc_sh SH071964 -33.10 157.70 -1 -33.10 157.70 TC -33.10 157.70 2 -33.10 157.70 TC 55 41 125
1964 SP EA 15:00:00 TS -34.24 159.66 695 695 P________PP_P_ SH071964 -34.25 159.73 -1 -34.25 159.73 TC -34.25 159.69 2 -34.21 159.51 TC 50 39 126
1964 SP MM 18:00:00 TS -35.37 161.51 893 875 O________OP_O_ jtwc_sh SH071964 -35.40 161.60 -1 -35.40 161.60 TC -35.39 161.55 2 -35.30 161.30 TC 45 37 127
1964 SP MM 21:00:00 TS -36.50 163.29 868 732 P________PP_P_ SH071964 -36.51 163.34 -1 -36.51 163.34 TC -36.51 163.29 2 -36.46 163.17 TC 42 35 129
1964 SP MM 1964-01-15 00:00:00 TS -37.60 164.90 718 556 O________OO_O_ jtwc_sh SH071964 -37.60 164.90 -1 -37.60 164.90 TC -37.60 164.90 2 -37.60 164.90 TC 40 32 132
1964 SP MM 03:00:00 TS -38.66 166.33 551 407 P________PP_P_ SH071964 -38.68 166.30 -1 -38.68 166.30 TC -38.66 166.38 2 -38.63 166.32 TC 37 30 134
1964 SP MM 06:00:00 TS -39.67 167.63 402 254 O________OP_O_ jtwc_sh SH071964 -39.70 167.60 -1 -39.70 167.60 TC -39.69 167.73 2 -39.60 167.60 TC 35 28 134
1964 SP MM 09:00:00 TS -40.63 168.96 247 112 P________PP_P_ SH071964 -40.65 168.95 -1 -40.65 168.95 TC -40.64 169.01 2 -40.59 168.94 TC 35 27 132
1964 SP MM 12:00:00 TS -41.50 170.30 104 0 O________OO_O_ jtwc_sh SH071964 -41.50 170.30 -1 -41.50 170.30 TC -41.50 170.30 2 -41.50 170.30 TC 35 26 129
1964 SP MM 15:00:00 TS -42.25 171.68 0 0 P________PP_P_ SH071964 -42.26 171.69 -1 -42.26 171.69 TC -42.23 171.65 2 -42.27 171.69 TC 32 25 124
1964 SP MM 18:00:00 TS -42.89 173.09 0 0 O________OP_O_ jtwc_sh SH071964 -42.90 173.10 -1 -42.90 173.10 TC -42.86 173.06 2 -42.90 173.10 TC 30 24 119
1964 SP MM 21:00:00 TS -43.43 174.53 106 106 P________PP_P_ SH071964 -43.43 174.54 -1 -43.43 174.54 TC -43.40 174.51 2 -43.43 174.54 TC 32 23 116
1964 SP MM 1964-01-16 00:00:00 TS -43.90 176.00 231 O________OO_O_ jtwc_sh SH071964 -43.90 176.00 -1 -43.90 176.00 TC -43.90 176.00 2 -43.90 176.00 TC 35 23 114